sensor_id;sensor_type;location;lat;lon;timestamp;pressure;altitude;pressure_sealevel;temperature;humidity
40946;BME280;55635;50.264;11.918;2022-08-19T00:02:39;95097.50;;;20.88;85.91
40946;BME280;55635;50.264;11.918;2022-08-19T00:05:21;95090.63;;;21.12;85.59
40946;BME280;55635;50.264;11.918;2022-08-19T00:08:03;95094.63;;;21.10;85.40
40946;BME280;55635;50.264;11.918;2022-08-19T00:10:44;95085.25;;;21.17;85.26
40946;BME280;55635;50.264;11.918;2022-08-19T00:13:26;95092.03;;;21.25;84.99
40946;BME280;55635;50.264;11.918;2022-08-19T00:16:09;95083.94;;;21.25;84.77
40946;BME280;55635;50.264;11.918;2022-08-19T00:18:50;95074.50;;;21.28;84.60
40946;BME280;55635;50.264;11.918;2022-08-19T00:21:31;95066.13;;;21.29;84.15
40946;BME280;55635;50.264;11.918;2022-08-19T00:24:14;95060.78;;;21.34;84.48
40946;BME280;55635;50.264;11.918;2022-08-19T00:26:57;95046.44;;;21.19;84.40
40946;BME280;55635;50.264;11.918;2022-08-19T00:29:38;95052.34;;;21.15;85.51
40946;BME280;55635;50.264;11.918;2022-08-19T00:32:19;95050.19;;;21.12;85.07
40946;BME280;55635;50.264;11.918;2022-08-19T00:35:01;95052.66;;;21.19;84.90
40946;BME280;55635;50.264;11.918;2022-08-19T00:37:42;95036.97;;;21.16;84.43
40946;BME280;55635;50.264;11.918;2022-08-19T00:40:23;95034.00;;;21.17;85.26
40946;BME280;55635;50.264;11.918;2022-08-19T00:43:11;95019.22;;;21.25;85.08
40946;BME280;55635;50.264;11.918;2022-08-19T00:45:54;95013.00;;;21.30;84.12
40946;BME280;55635;50.264;11.918;2022-08-19T00:48:35;95013.28;;;21.28;84.02
40946;BME280;55635;50.264;11.918;2022-08-19T00:51:17;95013.53;;;21.27;84.06
40946;BME280;55635;50.264;11.918;2022-08-19T00:53:59;95003.81;;;21.26;83.50
40946;BME280;55635;50.264;11.918;2022-08-19T00:56:42;95002.22;;;21.35;83.84
40946;BME280;55635;50.264;11.918;2022-08-19T00:59:23;95012.75;;;21.36;83.70
40946;BME280;55635;50.264;11.918;2022-08-19T01:02:06;95006.28;;;21.37;83.39
40946;BME280;55635;50.264;11.918;2022-08-19T01:04:47;95019.25;;;21.45;82.64
40946;BME280;55635;50.264;11.918;2022-08-19T01:07:28;95023.81;;;21.45;82.07
40946;BME280;55635;50.264;11.918;2022-08-19T01:10:14;95014.94;;;21.54;82.26
40946;BME280;55635;50.264;11.918;2022-08-19T01:12:58;95009.28;;;21.51;82.07
40946;BME280;55635;50.264;11.918;2022-08-19T01:15:46;95004.41;;;21.48;83.12
40946;BME280;55635;50.264;11.918;2022-08-19T01:18:30;95003.34;;;21.49;83.31
40946;BME280;55635;50.264;11.918;2022-08-19T01:24:05;95022.75;;;21.51;82.98
40946;BME280;55635;50.264;11.918;2022-08-19T01:26:46;95021.13;;;21.50;82.88
40946;BME280;55635;50.264;11.918;2022-08-19T01:29:27;95014.41;;;21.57;82.17
40946;BME280;55635;50.264;11.918;2022-08-19T01:32:14;95020.63;;;21.63;82.24
40946;BME280;55635;50.264;11.918;2022-08-19T01:34:55;95004.41;;;21.63;83.00
40946;BME280;55635;50.264;11.918;2022-08-19T01:37:48;94992.53;;;21.59;83.21
40946;BME280;55635;50.264;11.918;2022-08-19T01:40:32;94995.25;;;21.54;82.00
40946;BME280;55635;50.264;11.918;2022-08-19T01:43:13;94986.06;;;21.50;83.41
40946;BME280;55635;50.264;11.918;2022-08-19T01:45:55;94992.00;;;21.52;82.44
40946;BME280;55635;50.264;11.918;2022-08-19T01:48:41;94997.63;;;21.35;83.46
40946;BME280;55635;50.264;11.918;2022-08-19T01:51:23;95015.47;;;21.46;83.63
40946;BME280;55635;50.264;11.918;2022-08-19T01:54:04;95018.47;;;21.55;82.82
40946;BME280;55635;50.264;11.918;2022-08-19T01:56:45;95022.19;;;21.44;82.99
40946;BME280;55635;50.264;11.918;2022-08-19T01:59:26;95025.75;;;21.49;83.80
40946;BME280;55635;50.264;11.918;2022-08-19T02:02:08;95018.97;;;21.47;83.60
40946;BME280;55635;50.264;11.918;2022-08-19T02:04:49;95022.19;;;21.39;83.82
40946;BME280;55635;50.264;11.918;2022-08-19T02:07:30;95028.69;;;21.43;83.41
40946;BME280;55635;50.264;11.918;2022-08-19T02:10:18;95034.59;;;21.35;84.60
40946;BME280;55635;50.264;11.918;2022-08-19T02:13:00;95048.09;;;21.40;83.58
40946;BME280;55635;50.264;11.918;2022-08-19T02:15:41;95050.56;;;21.46;83.52
40946;BME280;55635;50.264;11.918;2022-08-19T02:18:22;95059.19;;;21.43;83.83
40946;BME280;55635;50.264;11.918;2022-08-19T02:21:03;95065.69;;;21.52;83.49
40946;BME280;55635;50.264;11.918;2022-08-19T02:23:44;95069.69;;;21.50;84.08
40946;BME280;55635;50.264;11.918;2022-08-19T02:26:26;95081.34;;;21.55;82.90
40946;BME280;55635;50.264;11.918;2022-08-19T02:29:07;95084.28;;;21.49;83.20
40946;BME280;55635;50.264;11.918;2022-08-19T02:31:48;95092.38;;;21.59;82.82
40946;BME280;55635;50.264;11.918;2022-08-19T02:34:29;95086.19;;;21.58;82.98
40946;BME280;55635;50.264;11.918;2022-08-19T02:37:10;95088.59;;;21.60;83.30
40946;BME280;55635;50.264;11.918;2022-08-19T02:40:11;95079.16;;;21.57;82.86
40946;BME280;55635;50.264;11.918;2022-08-19T02:42:52;95077.25;;;21.48;83.11
40946;BME280;55635;50.264;11.918;2022-08-19T02:45:36;95068.88;;;21.39;83.19
40946;BME280;55635;50.264;11.918;2022-08-19T02:48:19;95088.00;;;21.28;84.55
40946;BME280;55635;50.264;11.918;2022-08-19T02:51:00;95089.53;;;21.08;84.95
40946;BME280;55635;50.264;11.918;2022-08-19T02:53:41;95087.56;;;21.04;86.10
40946;BME280;55635;50.264;11.918;2022-08-19T02:56:23;95096.94;;;20.86;87.38
40946;BME280;55635;50.264;11.918;2022-08-19T02:59:07;95112.03;;;20.87;86.89
40946;BME280;55635;50.264;11.918;2022-08-19T03:01:52;95118.50;;;20.86;87.10
40946;BME280;55635;50.264;11.918;2022-08-19T03:04:33;95125.81;;;20.91;86.81
40946;BME280;55635;50.264;11.918;2022-08-19T03:07:15;95117.94;;;20.84;86.72
40946;BME280;55635;50.264;11.918;2022-08-19T03:09:56;95141.16;;;20.90;87.07
40946;BME280;55635;50.264;11.918;2022-08-19T03:12:38;95156.28;;;20.96;86.87
40946;BME280;55635;50.264;11.918;2022-08-19T03:15:20;95159.00;;;20.96;86.19
40946;BME280;55635;50.264;11.918;2022-08-19T03:18:01;95150.31;;;20.89;87.15
40946;BME280;55635;50.264;11.918;2022-08-19T03:20:51;95150.09;;;20.96;87.00
40946;BME280;55635;50.264;11.918;2022-08-19T03:23:36;95141.69;;;20.87;86.97
40946;BME280;55635;50.264;11.918;2022-08-19T03:26:17;95133.06;;;20.85;86.34
40946;BME280;55635;50.264;11.918;2022-08-19T03:29:02;95151.13;;;20.90;87.08
40946;BME280;55635;50.264;11.918;2022-08-19T03:31:44;95147.16;;;20.97;86.81
40946;BME280;55635;50.264;11.918;2022-08-19T03:34:28;95147.91;;;20.88;87.47
40946;BME280;55635;50.264;11.918;2022-08-19T03:37:11;95154.03;;;20.78;88.67
40946;BME280;55635;50.264;11.918;2022-08-19T03:39:55;95152.47;;;20.87;87.42
40946;BME280;55635;50.264;11.918;2022-08-19T03:42:36;95147.56;;;20.79;88.37
40946;BME280;55635;50.264;11.918;2022-08-19T03:45:17;95140.56;;;20.78;88.48
40946;BME280;55635;50.264;11.918;2022-08-19T03:47:58;95120.03;;;20.72;89.29
40946;BME280;55635;50.264;11.918;2022-08-19T03:50:40;95119.50;;;20.75;88.97
40946;BME280;55635;50.264;11.918;2022-08-19T03:53:21;95116.84;;;20.80;88.80
40946;BME280;55635;50.264;11.918;2022-08-19T03:56:02;95104.72;;;20.83;88.21
40946;BME280;55635;50.264;11.918;2022-08-19T03:58:44;95113.09;;;20.81;88.64
40946;BME280;55635;50.264;11.918;2022-08-19T04:01:27;95106.56;;;20.72;89.10
40946;BME280;55635;50.264;11.918;2022-08-19T04:04:09;95109.31;;;20.82;89.13
40946;BME280;55635;50.264;11.918;2022-08-19T04:06:51;95093.94;;;20.78;89.22
40946;BME280;55635;50.264;11.918;2022-08-19T04:09:34;95092.66;;;20.90;89.31
40946;BME280;55635;50.264;11.918;2022-08-19T04:12:17;95093.47;;;20.96;88.42
40946;BME280;55635;50.264;11.918;2022-08-19T04:14:58;95097.28;;;21.00;88.28
40946;BME280;55635;50.264;11.918;2022-08-19T04:17:39;95092.13;;;20.93;88.25
40946;BME280;55635;50.264;11.918;2022-08-19T04:20:21;95075.97;;;20.98;87.98
40946;BME280;55635;50.264;11.918;2022-08-19T04:23:02;95070.25;;;20.85;88.59
40946;BME280;55635;50.264;11.918;2022-08-19T04:25:44;95065.75;;;21.00;88.17
40946;BME280;55635;50.264;11.918;2022-08-19T04:28:25;95050.63;;;20.99;88.03
40946;BME280;55635;50.264;11.918;2022-08-19T04:31:17;95061.19;;;21.06;88.22
40946;BME280;55635;50.264;11.918;2022-08-19T04:34:00;95062.72;;;20.92;89.43
40946;BME280;55635;50.264;11.918;2022-08-19T04:36:44;95062.19;;;20.95;89.03
40946;BME280;55635;50.264;11.918;2022-08-19T04:39:29;95070.28;;;20.95;89.71
40946;BME280;55635;50.264;11.918;2022-08-19T04:42:29;95075.44;;;20.96;89.27
40946;BME280;55635;50.264;11.918;2022-08-19T04:45:19;95071.69;;;21.07;88.00
40946;BME280;55635;50.264;11.918;2022-08-19T04:48:01;95069.28;;;21.06;88.60
40946;BME280;55635;50.264;11.918;2022-08-19T04:50:43;95071.47;;;21.14;88.13
40946;BME280;55635;50.264;11.918;2022-08-19T04:53:30;95075.72;;;21.00;88.94
40946;BME280;55635;50.264;11.918;2022-08-19T04:56:14;95083.00;;;21.04;88.39
40946;BME280;55635;50.264;11.918;2022-08-19T04:58:56;95105.06;;;20.91;89.34
40946;BME280;55635;50.264;11.918;2022-08-19T05:01:37;95102.91;;;20.98;89.07
40946;BME280;55635;50.264;11.918;2022-08-19T05:04:20;95113.75;;;21.03;88.46
40946;BME280;55635;50.264;11.918;2022-08-19T05:07:01;95118.31;;;21.03;88.66
40946;BME280;55635;50.264;11.918;2022-08-19T05:09:42;95129.97;;;21.13;88.40
40946;BME280;55635;50.264;11.918;2022-08-19T05:12:23;95139.00;;;20.92;89.57
40946;BME280;55635;50.264;11.918;2022-08-19T05:15:07;95140.66;;;20.98;88.93
40946;BME280;55635;50.264;11.918;2022-08-19T05:17:49;95147.66;;;20.94;88.90
40946;BME280;55635;50.264;11.918;2022-08-19T05:20:48;95158.72;;;20.98;89.06
40946;BME280;55635;50.264;11.918;2022-08-19T05:23:48;95177.03;;;20.96;89.33
40946;BME280;55635;50.264;11.918;2022-08-19T05:26:30;95188.22;;;21.09;88.59
40946;BME280;55635;50.264;11.918;2022-08-19T05:29:12;95198.19;;;21.09;87.93
40946;BME280;55635;50.264;11.918;2022-08-19T05:31:55;95199.63;;;21.22;87.41
40946;BME280;55635;50.264;11.918;2022-08-19T05:34:37;95194.69;;;21.13;87.90
40946;BME280;55635;50.264;11.918;2022-08-19T05:37:19;95195.50;;;21.09;87.59
40946;BME280;55635;50.264;11.918;2022-08-19T05:39:59;95200.16;;;21.24;88.01
40946;BME280;55635;50.264;11.918;2022-08-19T05:42:40;95200.91;;;21.14;88.24
40946;BME280;55635;50.264;11.918;2022-08-19T05:45:21;95209.78;;;21.09;87.40
40946;BME280;55635;50.264;11.918;2022-08-19T05:48:03;95214.44;;;21.19;87.39
40946;BME280;55635;50.264;11.918;2022-08-19T05:50:44;95210.94;;;21.19;87.56
40946;BME280;55635;50.264;11.918;2022-08-19T05:53:25;95217.38;;;21.17;87.43
40946;BME280;55635;50.264;11.918;2022-08-19T05:56:14;95225.56;;;21.33;87.08
40946;BME280;55635;50.264;11.918;2022-08-19T05:58:57;95228.28;;;21.38;86.66
40946;BME280;55635;50.264;11.918;2022-08-19T06:01:41;95230.19;;;21.42;86.60
40946;BME280;55635;50.264;11.918;2022-08-19T06:04:23;95229.38;;;21.42;86.57
40946;BME280;55635;50.264;11.918;2022-08-19T06:07:04;95227.50;;;21.37;86.12
40946;BME280;55635;50.264;11.918;2022-08-19T06:09:45;95226.69;;;21.47;85.36
40946;BME280;55635;50.264;11.918;2022-08-19T06:12:32;95232.75;;;21.64;85.35
40946;BME280;55635;50.264;11.918;2022-08-19T06:15:15;95226.22;;;21.55;85.25
40946;BME280;55635;50.264;11.918;2022-08-19T06:17:56;95227.34;;;21.69;84.88
40946;BME280;55635;50.264;11.918;2022-08-19T06:20:37;95213.53;;;21.55;85.40
40946;BME280;55635;50.264;11.918;2022-08-19T06:23:18;95201.44;;;21.68;85.70
40946;BME280;55635;50.264;11.918;2022-08-19T06:26:01;95194.47;;;21.77;85.67
40946;BME280;55635;50.264;11.918;2022-08-19T06:28:42;95204.25;;;21.88;85.24
40946;BME280;55635;50.264;11.918;2022-08-19T06:31:29;95206.63;;;21.85;85.17
40946;BME280;55635;50.264;11.918;2022-08-19T06:34:12;95216.41;;;21.96;85.45
40946;BME280;55635;50.264;11.918;2022-08-19T06:36:55;95221.03;;;22.00;83.75
40946;BME280;55635;50.264;11.918;2022-08-19T06:39:40;95211.56;;;22.08;84.12
40946;BME280;55635;50.264;11.918;2022-08-19T06:42:21;95218.56;;;21.99;83.46
40946;BME280;55635;50.264;11.918;2022-08-19T06:45:06;95216.16;;;21.97;84.09
40946;BME280;55635;50.264;11.918;2022-08-19T06:47:48;95214.47;;;21.86;83.84
40946;BME280;55635;50.264;11.918;2022-08-19T06:50:29;95223.63;;;21.85;84.88
40946;BME280;55635;50.264;11.918;2022-08-19T06:53:10;95227.47;;;21.94;85.05
40946;BME280;55635;50.264;11.918;2022-08-19T06:55:51;95230.97;;;21.90;84.13
40946;BME280;55635;50.264;11.918;2022-08-19T06:58:42;95232.50;;;21.81;84.52
40946;BME280;55635;50.264;11.918;2022-08-19T07:01:23;95233.94;;;21.93;84.23
40946;BME280;55635;50.264;11.918;2022-08-19T07:04:07;95230.19;;;21.89;84.33
40946;BME280;55635;50.264;11.918;2022-08-19T07:06:55;95241.19;;;21.88;85.03
40946;BME280;55635;50.264;11.918;2022-08-19T07:09:39;95235.59;;;21.94;85.10
40946;BME280;55635;50.264;11.918;2022-08-19T07:12:21;95237.50;;;22.04;84.10
40946;BME280;55635;50.264;11.918;2022-08-19T07:15:04;95231.34;;;22.29;82.96
40946;BME280;55635;50.264;11.918;2022-08-19T07:17:46;95235.94;;;22.23;84.45
40946;BME280;55635;50.264;11.918;2022-08-19T07:20:27;95248.91;;;22.36;83.00
40946;BME280;55635;50.264;11.918;2022-08-19T07:23:09;95250.53;;;22.42;83.29
40946;BME280;55635;50.264;11.918;2022-08-19T07:25:50;95248.41;;;22.49;82.82
40946;BME280;55635;50.264;11.918;2022-08-19T07:28:31;95242.47;;;22.47;83.14
40946;BME280;55635;50.264;11.918;2022-08-19T07:31:16;95246.78;;;22.48;82.84
40946;BME280;55635;50.264;11.918;2022-08-19T07:34:01;95252.75;;;22.50;81.54
40946;BME280;55635;50.264;11.918;2022-08-19T07:36:44;95259.75;;;22.41;81.63
40946;BME280;55635;50.264;11.918;2022-08-19T07:39:30;95265.41;;;22.35;82.03
40946;BME280;55635;50.264;11.918;2022-08-19T07:42:11;95263.78;;;22.34;82.11
40946;BME280;55635;50.264;11.918;2022-08-19T07:44:52;95254.31;;;22.36;82.16
40946;BME280;55635;50.264;11.918;2022-08-19T07:47:33;95254.63;;;22.50;82.30
40946;BME280;55635;50.264;11.918;2022-08-19T07:50:15;95267.84;;;22.46;81.88
40946;BME280;55635;50.264;11.918;2022-08-19T07:52:56;95271.38;;;22.47;81.29
40946;BME280;55635;50.264;11.918;2022-08-19T07:55:37;95276.78;;;22.52;81.38
40946;BME280;55635;50.264;11.918;2022-08-19T07:58:21;95285.38;;;22.34;81.05
40946;BME280;55635;50.264;11.918;2022-08-19T08:01:06;95279.47;;;22.57;82.05
40946;BME280;55635;50.264;11.918;2022-08-19T08:03:49;95287.06;;;22.60;81.52
40946;BME280;55635;50.264;11.918;2022-08-19T08:06:49;95290.34;;;22.72;80.81
40946;BME280;55635;50.264;11.918;2022-08-19T08:09:49;95278.22;;;22.90;80.07
40946;BME280;55635;50.264;11.918;2022-08-19T08:12:37;95275.50;;;22.95;80.67
40946;BME280;55635;50.264;11.918;2022-08-19T08:15:22;95249.00;;;22.92;79.43
40946;BME280;55635;50.264;11.918;2022-08-19T08:18:03;95252.25;;;22.84;80.15
40946;BME280;55635;50.264;11.918;2022-08-19T08:20:44;95261.16;;;22.79;80.22
40946;BME280;55635;50.264;11.918;2022-08-19T08:23:25;95253.84;;;22.85;80.56
40946;BME280;55635;50.264;11.918;2022-08-19T08:26:06;95257.09;;;22.82;80.79
40946;BME280;55635;50.264;11.918;2022-08-19T08:28:47;95227.63;;;23.05;80.46
40946;BME280;55635;50.264;11.918;2022-08-19T08:31:29;95222.47;;;22.94;79.40
40946;BME280;55635;50.264;11.918;2022-08-19T08:34:11;95237.91;;;22.98;79.81
40946;BME280;55635;50.264;11.918;2022-08-19T08:36:53;95230.88;;;22.77;80.92
40946;BME280;55635;50.264;11.918;2022-08-19T08:39:33;95230.31;;;23.10;79.91
40946;BME280;55635;50.264;11.918;2022-08-19T08:42:26;95230.00;;;23.37;78.29
40946;BME280;55635;50.264;11.918;2022-08-19T08:45:15;95215.41;;;23.33;78.84
40946;BME280;55635;50.264;11.918;2022-08-19T08:48:04;95228.59;;;23.65;78.29
40946;BME280;55635;50.264;11.918;2022-08-19T08:50:51;95233.19;;;23.69;78.80
40946;BME280;55635;50.264;11.918;2022-08-19T08:53:36;95224.00;;;23.65;77.70
40946;BME280;55635;50.264;11.918;2022-08-19T08:56:19;95222.13;;;23.56;76.48
40946;BME280;55635;50.264;11.918;2022-08-19T08:59:09;95230.16;;;23.81;77.99
40946;BME280;55635;50.264;11.918;2022-08-19T09:01:53;95249.50;;;23.44;78.48
40946;BME280;55635;50.264;11.918;2022-08-19T09:04:38;95240.47;;;23.79;78.33
40946;BME280;55635;50.264;11.918;2022-08-19T09:10:34;95241.44;;;23.98;77.04
40946;BME280;55635;50.264;11.918;2022-08-19T09:13:28;95239.81;;;24.02;75.70
40946;BME280;55635;50.264;11.918;2022-08-19T09:16:20;95242.56;;;23.92;76.36
40946;BME280;55635;50.264;11.918;2022-08-19T09:19:05;95246.88;;;23.98;75.67
40946;BME280;55635;50.264;11.918;2022-08-19T09:21:47;95240.78;;;23.62;75.85
40946;BME280;55635;50.264;11.918;2022-08-19T09:24:29;95243.66;;;23.86;76.34
40946;BME280;55635;50.264;11.918;2022-08-19T09:27:10;95242.44;;;23.53;77.76
40946;BME280;55635;50.264;11.918;2022-08-19T09:29:52;95250.59;;;23.48;77.67
40946;BME280;55635;50.264;11.918;2022-08-19T09:32:34;95260.84;;;23.46;76.96
40946;BME280;55635;50.264;11.918;2022-08-19T09:35:15;95256.78;;;23.39;76.65
40946;BME280;55635;50.264;11.918;2022-08-19T09:37:57;95263.84;;;23.45;77.25
40946;BME280;55635;50.264;11.918;2022-08-19T09:40:38;95263.28;;;23.27;77.30
40946;BME280;55635;50.264;11.918;2022-08-19T09:43:19;95260.63;;;23.07;78.08
40946;BME280;55635;50.264;11.918;2022-08-19T09:46:05;95267.66;;;23.13;78.50
40946;BME280;55635;50.264;11.918;2022-08-19T09:48:48;95262.25;;;23.08;77.93
40946;BME280;55635;50.264;11.918;2022-08-19T09:51:33;95264.09;;;23.38;77.83
40946;BME280;55635;50.264;11.918;2022-08-19T09:54:14;95262.47;;;23.37;78.17
40946;BME280;55635;50.264;11.918;2022-08-19T09:56:58;95265.47;;;23.36;78.09
40946;BME280;55635;50.264;11.918;2022-08-19T09:59:40;95268.16;;;23.25;78.33
40946;BME280;55635;50.264;11.918;2022-08-19T10:02:21;95276.00;;;23.12;78.90
40946;BME280;55635;50.264;11.918;2022-08-19T10:05:03;95281.16;;;23.18;78.33
40946;BME280;55635;50.264;11.918;2022-08-19T10:08:02;95275.22;;;23.01;78.73
40946;BME280;55635;50.264;11.918;2022-08-19T10:10:44;95284.41;;;23.00;79.68
40946;BME280;55635;50.264;11.918;2022-08-19T10:13:28;95296.06;;;23.01;78.68
40946;BME280;55635;50.264;11.918;2022-08-19T10:16:19;95285.22;;;23.01;79.62
40946;BME280;55635;50.264;11.918;2022-08-19T10:19:02;95280.38;;;22.98;80.49
40946;BME280;55635;50.264;11.918;2022-08-19T10:21:43;95284.44;;;22.90;80.54
40946;BME280;55635;50.264;11.918;2022-08-19T10:24:24;95296.59;;;22.98;79.43
40946;BME280;55635;50.264;11.918;2022-08-19T10:27:06;95286.56;;;23.03;79.35
40946;BME280;55635;50.264;11.918;2022-08-19T10:29:47;95293.59;;;22.94;80.41
40946;BME280;55635;50.264;11.918;2022-08-19T10:32:28;95295.50;;;23.04;80.20
40946;BME280;55635;50.264;11.918;2022-08-19T10:35:09;95293.88;;;23.03;79.88
40946;BME280;55635;50.264;11.918;2022-08-19T10:37:51;95281.16;;;23.18;79.42
40946;BME280;55635;50.264;11.918;2022-08-19T10:40:32;95284.41;;;23.10;79.82
40946;BME280;55635;50.264;11.918;2022-08-19T10:43:13;95274.13;;;23.12;79.69
40946;BME280;55635;50.264;11.918;2022-08-19T10:45:55;95272.53;;;23.11;79.69
40946;BME280;55635;50.264;11.918;2022-08-19T10:48:37;95268.75;;;23.02;80.75
40946;BME280;55635;50.264;11.918;2022-08-19T10:51:18;95270.34;;;22.68;80.22
40946;BME280;55635;50.264;11.918;2022-08-19T10:54:19;95277.88;;;22.56;81.17
40946;BME280;55635;50.264;11.918;2022-08-19T10:57:00;95284.63;;;22.58;81.74
40946;BME280;55635;50.264;11.918;2022-08-19T10:59:41;95279.47;;;22.57;82.33
40946;BME280;55635;50.264;11.918;2022-08-19T11:02:22;95273.59;;;22.70;81.76
40946;BME280;55635;50.264;11.918;2022-08-19T11:05:03;95278.94;;;22.55;80.24
40946;BME280;55635;50.264;11.918;2022-08-19T11:07:45;95296.50;;;22.57;81.11
40946;BME280;55635;50.264;11.918;2022-08-19T11:10:26;95299.50;;;22.56;80.86
40946;BME280;55635;50.264;11.918;2022-08-19T11:13:07;95294.31;;;22.34;81.34
40946;BME280;55635;50.264;11.918;2022-08-19T11:15:57;95288.09;;;22.39;80.33
40946;BME280;55635;50.264;11.918;2022-08-19T11:18:43;95288.34;;;22.27;81.24
40946;BME280;55635;50.264;11.918;2022-08-19T11:21:31;95284.84;;;22.37;81.10
40946;BME280;55635;50.264;11.918;2022-08-19T11:24:22;95281.59;;;22.30;81.83
40946;BME280;55635;50.264;11.918;2022-08-19T11:27:08;95284.81;;;22.27;82.46
40946;BME280;55635;50.264;11.918;2022-08-19T11:29:50;95292.97;;;22.32;81.99
40946;BME280;55635;50.264;11.918;2022-08-19T11:32:33;95291.22;;;22.05;82.50
40946;BME280;55635;50.264;11.918;2022-08-19T11:35:16;95299.41;;;22.26;82.70
40946;BME280;55635;50.264;11.918;2022-08-19T11:37:57;95304.25;;;22.23;82.66
40946;BME280;55635;50.264;11.918;2022-08-19T11:40:40;95297.38;;;21.91;83.51
40946;BME280;55635;50.264;11.918;2022-08-19T11:43:22;95299.63;;;22.09;83.08
40946;BME280;55635;50.264;11.918;2022-08-19T11:46:06;95303.09;;;21.99;83.86
40946;BME280;55635;50.264;11.918;2022-08-19T11:48:47;95309.06;;;22.06;82.33
40946;BME280;55635;50.264;11.918;2022-08-19T11:51:31;95303.97;;;22.10;81.74
40946;BME280;55635;50.264;11.918;2022-08-19T11:54:14;95305.31;;;22.12;81.26
40946;BME280;55635;50.264;11.918;2022-08-19T11:56:55;95304.78;;;22.15;80.97
40946;BME280;55635;50.264;11.918;2022-08-19T11:59:36;95309.59;;;22.08;82.11
40946;BME280;55635;50.264;11.918;2022-08-19T12:02:17;95312.91;;;22.20;82.14
40946;BME280;55635;50.264;11.918;2022-08-19T12:04:59;95318.28;;;22.20;82.27
40946;BME280;55635;50.264;11.918;2022-08-19T12:07:43;95316.47;;;22.31;81.60
40946;BME280;55635;50.264;11.918;2022-08-19T12:10:24;95314.88;;;22.45;79.72
40946;BME280;55635;50.264;11.918;2022-08-19T12:13:06;95306.78;;;22.60;79.93
40946;BME280;55635;50.264;11.918;2022-08-19T12:15:47;95310.84;;;22.63;80.15
40946;BME280;55635;50.264;11.918;2022-08-19T12:18:28;95318.50;;;22.81;79.24
40946;BME280;55635;50.264;11.918;2022-08-19T12:21:09;95319.59;;;22.90;79.20
40946;BME280;55635;50.264;11.918;2022-08-19T12:23:51;95313.88;;;22.82;78.88
40946;BME280;55635;50.264;11.918;2022-08-19T12:26:33;95322.81;;;22.97;77.75
40946;BME280;55635;50.264;11.918;2022-08-19T12:29:14;95320.69;;;22.99;78.39
40946;BME280;55635;50.264;11.918;2022-08-19T12:31:58;95321.75;;;23.13;77.11
40946;BME280;55635;50.264;11.918;2022-08-19T12:34:42;95315.53;;;23.13;77.48
40946;BME280;55635;50.264;11.918;2022-08-19T12:37:23;95317.41;;;23.07;77.19
40946;BME280;55635;50.264;11.918;2022-08-19T12:40:05;95316.88;;;23.10;77.01
40946;BME280;55635;50.264;11.918;2022-08-19T12:42:47;95326.34;;;23.08;77.19
40946;BME280;55635;50.264;11.918;2022-08-19T12:45:30;95317.69;;;23.01;78.10
40946;BME280;55635;50.264;11.918;2022-08-19T12:48:12;95317.69;;;23.01;76.80
40946;BME280;55635;50.264;11.918;2022-08-19T12:50:53;95314.44;;;22.89;76.68
40946;BME280;55635;50.264;11.918;2022-08-19T12:53:35;95319.31;;;22.92;76.92
40946;BME280;55635;50.264;11.918;2022-08-19T12:56:16;95304.69;;;22.67;78.44
40946;BME280;55635;50.264;11.918;2022-08-19T12:59:01;95304.16;;;22.81;78.21
40946;BME280;55635;50.264;11.918;2022-08-19T13:01:44;95303.88;;;22.82;77.44
40946;BME280;55635;50.264;11.918;2022-08-19T13:04:25;95303.91;;;22.92;77.34
40946;BME280;55635;50.264;11.918;2022-08-19T13:07:07;95294.97;;;23.07;77.35
40946;BME280;55635;50.264;11.918;2022-08-19T13:09:51;95293.63;;;23.14;76.14
40946;BME280;55635;50.264;11.918;2022-08-19T13:12:33;95297.69;;;23.27;75.41
40946;BME280;55635;50.264;11.918;2022-08-19T13:15:16;95293.63;;;23.45;75.22
40946;BME280;55635;50.264;11.918;2022-08-19T13:18:01;95298.44;;;23.58;74.13
40946;BME280;55635;50.264;11.918;2022-08-19T13:20:42;95299.81;;;23.60;73.67
40946;BME280;55635;50.264;11.918;2022-08-19T13:23:23;95306.88;;;23.16;74.86
40946;BME280;55635;50.264;11.918;2022-08-19T13:26:07;95303.34;;;23.46;75.02
40946;BME280;55635;50.264;11.918;2022-08-19T13:28:48;95307.34;;;23.73;73.49
40946;BME280;55635;50.264;11.918;2022-08-19T13:31:48;95316.31;;;23.59;75.42
40946;BME280;55635;50.264;11.918;2022-08-19T13:34:47;95313.88;;;23.62;73.41
40946;BME280;55635;50.264;11.918;2022-08-19T13:37:28;95310.06;;;23.73;72.76
40946;BME280;55635;50.264;11.918;2022-08-19T13:40:24;95302.25;;;23.52;72.89
40946;BME280;55635;50.264;11.918;2022-08-19T13:43:07;95302.16;;;23.92;72.74
40946;BME280;55635;50.264;11.918;2022-08-19T13:45:54;95301.88;;;23.94;72.46
40946;BME280;55635;50.264;11.918;2022-08-19T13:48:39;95301.53;;;24.10;72.04
40946;BME280;55635;50.264;11.918;2022-08-19T13:51:21;95303.13;;;24.26;70.87
40946;BME280;55635;50.264;11.918;2022-08-19T13:54:03;95298.78;;;24.25;69.90
40946;BME280;55635;50.264;11.918;2022-08-19T13:56:45;95296.63;;;24.22;70.01
40946;BME280;55635;50.264;11.918;2022-08-19T13:59:26;95291.25;;;24.17;70.11
40946;BME280;55635;50.264;11.918;2022-08-19T14:02:07;95291.25;;;24.17;71.07
40946;BME280;55635;50.264;11.918;2022-08-19T14:04:48;95300.78;;;23.95;72.03
40946;BME280;55635;50.264;11.918;2022-08-19T14:07:28;95296.00;;;23.71;71.23
40946;BME280;55635;50.264;11.918;2022-08-19T14:10:11;95313.88;;;23.52;72.07
40946;BME280;55635;50.264;11.918;2022-08-19T14:12:55;95305.53;;;23.44;73.70
40946;BME280;55635;50.264;11.918;2022-08-19T14:15:37;95299.00;;;23.60;72.79
40946;BME280;55635;50.264;11.918;2022-08-19T14:18:18;95304.16;;;23.51;72.49
40946;BME280;55635;50.264;11.918;2022-08-19T14:21:00;95297.13;;;23.35;72.76